메인 페이지
METAR-TAF:

METAR-TAF

공항 :

부줌부라, 부룬디

위도: 03-19S, 경도: 029-19E, 고도: 782m

현재 날씨관측

예보는 23 시간 54분 전, 09:00시(UTC)에 발표되었습니다.
남남서2kt
온도
기압 1016 hPa
시정: 9000m
고도 2500ft 상공 구름 조금

METAR: HBBA 030900Z 20002KT 9000 FEW025 Q1016 NOSIG

시각: 10:54 (08:54 UTC)

예보

예보는 3 시간 54분 전, 05:00시(UTC)에 발표되었습니다.
예보 대상 시간: 04일 06시부터 05일 12시까지 (UTC)
10kt, 순간 최대 풍속 20kt
시정 10km 이상
고도 3000ft 상공 구름 조금
고도 2500ft 상공 구름 조금
고도 10000ft 상공 구름 보통
고도 3000ft 상공 구름 조금
고도 2500ft 상공 구름 조금
고도 10000ft 상공 구름 보통

TAF: HBBA 040500Z 0406/0512 36004KT 9999 FEW030 BECMG0408/0410 18008G20KT 9999 FEW025 SCT100 BECMG0419/0421 00000KT 9999 FEW030 BECMG0502/0504 36004KT BECMG0508/0510 18010G20KT 9999 FEW025 SCT100

4,000개 이상의 공항 관측 자료 및 예보 (METAR 및 TAF 보고).

지도상에서 검색 가능한 기상관측소가 노란 점과 빨간 점으로 표시되어 있습니다.

기상관측소 명을 보려면 표시 위로 마우스를 이동하세요.

날씨 관측과 예보를 보려면 클릭하세요.

지도 변경 : 확대하려면 엑스 표시가 있는 녹색 버튼, 축소하려면 빼기 표시가 있는 녹색 버튼, 다음 페이지의 지도를 보려면 녹색 화살표를 클릭하세요.


METAR-TAF: